Terminal Aerodrome Forecast
Issued by NWS

Home | Current Version | Previous Version | Text Only | Print | Product List | Glossary On
Versions: 1 2 3 4 5 6 7 8 9 10 11 12 13 14 15 16 17 18 19 20 21
000
FTUS41 KBOX 261727
TAFHYA
TAF
KHYA 261727Z 2618/2718 14007KT P6SM FEW250
     FM262200 15006KT P6SM SCT150
     FM270900 19006KT P6SM BKN130
     FM271500 20009KT P6SM SCT100=

USA.gov is the U.S. government's official web portal to all federal, state and local government web resources and services.